TAF KRNH
KRNH 090520Z 0906/1006 13012KT P6SM OVC150 FM091500 14008KT P6SM OVC050 TEMPO 0915/0918 4SM -SN BR OVC030 FM092000 21007KT P6SM SCT040 FM092300 27008KT P6SM SKC=
METAR KRNH
WC KRNH
WS KRNH
WV KRNH